sensor_id;sensor_type;location;lat;lon;timestamp;P1;durP1;ratioP1;P2;durP2;ratioP2
60869;SDS011;46710;43.680;4.132;2022-07-03T00:01:18;2.33;;;1.20;;
60869;SDS011;46710;43.680;4.132;2022-07-03T00:03:44;2.65;;;1.30;;
60869;SDS011;46710;43.680;4.132;2022-07-03T00:06:10;1.12;;;1.02;;
60869;SDS011;46710;43.680;4.132;2022-07-03T00:08:37;1.12;;;1.00;;
60869;SDS011;46710;43.680;4.132;2022-07-03T00:11:03;1.98;;;1.37;;
60869;SDS011;46710;43.680;4.132;2022-07-03T00:13:30;1.87;;;1.20;;
60869;SDS011;46710;43.680;4.132;2022-07-03T00:15:56;2.47;;;1.30;;
60869;SDS011;46710;43.680;4.132;2022-07-03T00:18:22;2.12;;;1.15;;
60869;SDS011;46710;43.680;4.132;2022-07-03T00:20:49;1.95;;;1.20;;
60869;SDS011;46710;43.680;4.132;2022-07-03T00:23:16;1.50;;;1.10;;
60869;SDS011;46710;43.680;4.132;2022-07-03T00:25:42;1.20;;;1.10;;
60869;SDS011;46710;43.680;4.132;2022-07-03T00:28:09;3.45;;;1.30;;
60869;SDS011;46710;43.680;4.132;2022-07-03T00:30:35;1.20;;;1.10;;
60869;SDS011;46710;43.680;4.132;2022-07-03T00:33:02;2.83;;;1.20;;
60869;SDS011;46710;43.680;4.132;2022-07-03T00:35:32;1.67;;;1.20;;
60869;SDS011;46710;43.680;4.132;2022-07-03T00:37:58;1.23;;;1.12;;
60869;SDS011;46710;43.680;4.132;2022-07-03T00:40:25;1.95;;;1.30;;
60869;SDS011;46710;43.680;4.132;2022-07-03T00:42:51;4.28;;;1.20;;
60869;SDS011;46710;43.680;4.132;2022-07-03T00:45:19;2.75;;;1.08;;
60869;SDS011;46710;43.680;4.132;2022-07-03T00:47:45;2.08;;;1.15;;
60869;SDS011;46710;43.680;4.132;2022-07-03T00:50:11;1.10;;;1.00;;
60869;SDS011;46710;43.680;4.132;2022-07-03T00:52:37;2.17;;;1.17;;
60869;SDS011;46710;43.680;4.132;2022-07-03T00:55:08;2.65;;;1.02;;
60869;SDS011;46710;43.680;4.132;2022-07-03T00:57:34;1.85;;;1.10;;
60869;SDS011;46710;43.680;4.132;2022-07-03T01:00:01;1.20;;;1.10;;
60869;SDS011;46710;43.680;4.132;2022-07-03T01:13:06;1.40;;;1.10;;
60869;SDS011;46710;43.680;4.132;2022-07-03T01:15:36;1.12;;;1.02;;
60869;SDS011;46710;43.680;4.132;2022-07-03T01:18:21;1.25;;;1.12;;
60869;SDS011;46710;43.680;4.132;2022-07-03T01:20:51;1.48;;;1.10;;
60869;SDS011;46710;43.680;4.132;2022-07-03T01:23:46;1.45;;;0.93;;
60869;SDS011;46710;43.680;4.132;2022-07-03T01:26:05;1.50;;;1.30;;
60869;SDS011;46710;43.680;4.132;2022-07-03T01:28:33;1.33;;;1.10;;
60869;SDS011;46710;43.680;4.132;2022-07-03T01:31:02;3.30;;;1.40;;
60869;SDS011;46710;43.680;4.132;2022-07-03T01:33:30;1.20;;;1.10;;
60869;SDS011;46710;43.680;4.132;2022-07-03T01:38:27;1.52;;;1.20;;
60869;SDS011;46710;43.680;4.132;2022-07-03T01:40:53;1.65;;;1.23;;
60869;SDS011;46710;43.680;4.132;2022-07-03T01:43:22;1.17;;;1.08;;
60869;SDS011;46710;43.680;4.132;2022-07-03T01:45:51;1.50;;;1.20;;
60869;SDS011;46710;43.680;4.132;2022-07-03T01:48:19;1.25;;;1.10;;
60869;SDS011;46710;43.680;4.132;2022-07-03T01:50:45;1.20;;;1.00;;
60869;SDS011;46710;43.680;4.132;2022-07-03T01:53:14;2.20;;;1.10;;
60869;SDS011;46710;43.680;4.132;2022-07-03T01:55:41;1.50;;;1.40;;
60869;SDS011;46710;43.680;4.132;2022-07-03T01:58:08;1.12;;;0.90;;
60869;SDS011;46710;43.680;4.132;2022-07-03T02:00:58;1.30;;;1.10;;
60869;SDS011;46710;43.680;4.132;2022-07-03T02:03:25;1.33;;;1.10;;
60869;SDS011;46710;43.680;4.132;2022-07-03T02:05:55;1.42;;;0.90;;
60869;SDS011;46710;43.680;4.132;2022-07-03T02:13:44;1.05;;;0.95;;
60869;SDS011;46710;43.680;4.132;2022-07-03T02:16:11;1.85;;;1.10;;
60869;SDS011;46710;43.680;4.132;2022-07-03T02:18:40;5.55;;;1.20;;
60869;SDS011;46710;43.680;4.132;2022-07-03T02:21:26;2.65;;;1.00;;
60869;SDS011;46710;43.680;4.132;2022-07-03T02:26:41;1.90;;;1.48;;
60869;SDS011;46710;43.680;4.132;2022-07-03T02:29:15;1.92;;;1.30;;
60869;SDS011;46710;43.680;4.132;2022-07-03T02:31:45;1.60;;;1.40;;
60869;SDS011;46710;43.680;4.132;2022-07-03T02:34:13;1.23;;;1.12;;
60869;SDS011;46710;43.680;4.132;2022-07-03T02:36:40;2.22;;;1.00;;
60869;SDS011;46710;43.680;4.132;2022-07-03T02:39:10;2.83;;;1.23;;
60869;SDS011;46710;43.680;4.132;2022-07-03T02:41:42;1.10;;;1.00;;
60869;SDS011;46710;43.680;4.132;2022-07-03T02:44:31;1.17;;;1.00;;
60869;SDS011;46710;43.680;4.132;2022-07-03T02:52:30;1.00;;;0.90;;
60869;SDS011;46710;43.680;4.132;2022-07-03T02:55:25;2.60;;;1.05;;
60869;SDS011;46710;43.680;4.132;2022-07-03T02:57:45;1.10;;;1.00;;
60869;SDS011;46710;43.680;4.132;2022-07-03T03:00:11;1.37;;;1.00;;
60869;SDS011;46710;43.680;4.132;2022-07-03T03:02:47;1.20;;;1.10;;
60869;SDS011;46710;43.680;4.132;2022-07-03T03:05:38;1.42;;;1.00;;
60869;SDS011;46710;43.680;4.132;2022-07-03T03:10:36;4.47;;;1.05;;
60869;SDS011;46710;43.680;4.132;2022-07-03T03:13:04;1.10;;;1.00;;
60869;SDS011;46710;43.680;4.132;2022-07-03T03:15:30;1.12;;;1.02;;
60869;SDS011;46710;43.680;4.132;2022-07-03T03:18:00;3.67;;;1.23;;
60869;SDS011;46710;43.680;4.132;2022-07-03T03:20:30;1.55;;;0.90;;
60869;SDS011;46710;43.680;4.132;2022-07-03T03:23:10;1.70;;;1.00;;
60869;SDS011;46710;43.680;4.132;2022-07-03T03:25:37;1.17;;;0.95;;
60869;SDS011;46710;43.680;4.132;2022-07-03T03:28:03;0.90;;;0.90;;
60869;SDS011;46710;43.680;4.132;2022-07-03T03:30:29;2.45;;;0.95;;
60869;SDS011;46710;43.680;4.132;2022-07-03T03:32:56;1.55;;;1.00;;
60869;SDS011;46710;43.680;4.132;2022-07-03T03:35:22;1.20;;;1.10;;
60869;SDS011;46710;43.680;4.132;2022-07-03T03:37:48;1.08;;;1.08;;
60869;SDS011;46710;43.680;4.132;2022-07-03T03:40:17;1.25;;;1.02;;
60869;SDS011;46710;43.680;4.132;2022-07-03T03:42:43;1.45;;;0.80;;
60869;SDS011;46710;43.680;4.132;2022-07-03T03:45:09;1.27;;;1.00;;
60869;SDS011;46710;43.680;4.132;2022-07-03T03:47:36;1.17;;;1.08;;
60869;SDS011;46710;43.680;4.132;2022-07-03T03:50:02;1.10;;;0.90;;
60869;SDS011;46710;43.680;4.132;2022-07-03T03:52:29;0.90;;;0.90;;
60869;SDS011;46710;43.680;4.132;2022-07-03T03:54:55;1.25;;;1.00;;
60869;SDS011;46710;43.680;4.132;2022-07-03T03:57:22;1.33;;;0.90;;
60869;SDS011;46710;43.680;4.132;2022-07-03T03:59:49;1.10;;;1.00;;
60869;SDS011;46710;43.680;4.132;2022-07-03T04:02:15;1.00;;;1.00;;
60869;SDS011;46710;43.680;4.132;2022-07-03T04:04:42;1.25;;;0.90;;
60869;SDS011;46710;43.680;4.132;2022-07-03T04:07:09;1.73;;;0.90;;
60869;SDS011;46710;43.680;4.132;2022-07-03T04:09:35;1.67;;;1.30;;
60869;SDS011;46710;43.680;4.132;2022-07-03T04:12:02;0.70;;;0.70;;
60869;SDS011;46710;43.680;4.132;2022-07-03T04:14:28;0.82;;;0.82;;
60869;SDS011;46710;43.680;4.132;2022-07-03T04:16:54;2.90;;;1.05;;
60869;SDS011;46710;43.680;4.132;2022-07-03T04:19:20;1.10;;;0.90;;
60869;SDS011;46710;43.680;4.132;2022-07-03T04:21:47;1.00;;;0.90;;
60869;SDS011;46710;43.680;4.132;2022-07-03T04:24:14;0.82;;;0.82;;
60869;SDS011;46710;43.680;4.132;2022-07-03T04:26:40;1.95;;;1.00;;
60869;SDS011;46710;43.680;4.132;2022-07-03T04:29:06;3.00;;;1.30;;
60869;SDS011;46710;43.680;4.132;2022-07-03T04:31:32;6.12;;;1.48;;
60869;SDS011;46710;43.680;4.132;2022-07-03T04:33:58;1.45;;;1.10;;
60869;SDS011;46710;43.680;4.132;2022-07-03T04:36:24;0.85;;;0.80;;
60869;SDS011;46710;43.680;4.132;2022-07-03T04:38:51;1.23;;;1.12;;
60869;SDS011;46710;43.680;4.132;2022-07-03T04:41:17;2.12;;;0.80;;
60869;SDS011;46710;43.680;4.132;2022-07-03T04:43:43;0.80;;;0.75;;
60869;SDS011;46710;43.680;4.132;2022-07-03T04:46:09;0.85;;;0.73;;
60869;SDS011;46710;43.680;4.132;2022-07-03T04:48:35;1.00;;;0.90;;
60869;SDS011;46710;43.680;4.132;2022-07-03T04:51:01;1.00;;;0.90;;
60869;SDS011;46710;43.680;4.132;2022-07-03T04:53:27;1.20;;;1.08;;
60869;SDS011;46710;43.680;4.132;2022-07-03T04:55:53;1.67;;;1.00;;
60869;SDS011;46710;43.680;4.132;2022-07-03T04:58:20;0.90;;;0.90;;
60869;SDS011;46710;43.680;4.132;2022-07-03T05:00:46;0.80;;;0.80;;
60869;SDS011;46710;43.680;4.132;2022-07-03T05:03:12;1.20;;;0.80;;
60869;SDS011;46710;43.680;4.132;2022-07-03T05:05:38;0.85;;;0.85;;
60869;SDS011;46710;43.680;4.132;2022-07-03T05:08:04;0.70;;;0.70;;
60869;SDS011;46710;43.680;4.132;2022-07-03T05:10:31;0.80;;;0.70;;
60869;SDS011;46710;43.680;4.132;2022-07-03T05:12:57;0.90;;;0.70;;
60869;SDS011;46710;43.680;4.132;2022-07-03T05:15:23;1.55;;;0.90;;
60869;SDS011;46710;43.680;4.132;2022-07-03T05:17:49;0.70;;;0.70;;
60869;SDS011;46710;43.680;4.132;2022-07-03T05:20:15;0.70;;;0.70;;
60869;SDS011;46710;43.680;4.132;2022-07-03T05:22:51;0.80;;;0.80;;
60869;SDS011;46710;43.680;4.132;2022-07-03T05:25:17;1.37;;;0.90;;
60869;SDS011;46710;43.680;4.132;2022-07-03T05:27:43;2.42;;;0.95;;
60869;SDS011;46710;43.680;4.132;2022-07-03T05:30:10;2.40;;;0.80;;
60869;SDS011;46710;43.680;4.132;2022-07-03T05:32:36;0.65;;;0.65;;
60869;SDS011;46710;43.680;4.132;2022-07-03T05:35:03;0.93;;;0.62;;
60869;SDS011;46710;43.680;4.132;2022-07-03T05:37:29;0.95;;;0.60;;
60869;SDS011;46710;43.680;4.132;2022-07-03T05:39:55;0.73;;;0.60;;
60869;SDS011;46710;43.680;4.132;2022-07-03T05:42:21;0.70;;;0.70;;
60869;SDS011;46710;43.680;4.132;2022-07-03T05:44:47;1.05;;;0.80;;
60869;SDS011;46710;43.680;4.132;2022-07-03T05:47:13;1.42;;;0.88;;
60869;SDS011;46710;43.680;4.132;2022-07-03T05:49:39;1.17;;;0.90;;
60869;SDS011;46710;43.680;4.132;2022-07-03T05:52:06;1.50;;;0.93;;
60869;SDS011;46710;43.680;4.132;2022-07-03T05:54:32;0.85;;;0.77;;
60869;SDS011;46710;43.680;4.132;2022-07-03T05:56:58;1.75;;;0.70;;
60869;SDS011;46710;43.680;4.132;2022-07-03T05:59:24;0.70;;;0.70;;
60869;SDS011;46710;43.680;4.132;2022-07-03T06:01:50;0.95;;;0.82;;
60869;SDS011;46710;43.680;4.132;2022-07-03T06:04:16;1.55;;;0.88;;
60869;SDS011;46710;43.680;4.132;2022-07-03T06:06:42;0.80;;;0.80;;
60869;SDS011;46710;43.680;4.132;2022-07-03T06:09:08;2.28;;;0.90;;
60869;SDS011;46710;43.680;4.132;2022-07-03T06:11:35;0.60;;;0.60;;
60869;SDS011;46710;43.680;4.132;2022-07-03T06:14:01;2.58;;;0.90;;
60869;SDS011;46710;43.680;4.132;2022-07-03T06:16:27;2.17;;;0.70;;
60869;SDS011;46710;43.680;4.132;2022-07-03T06:18:53;0.80;;;0.68;;
60869;SDS011;46710;43.680;4.132;2022-07-03T06:21:19;1.95;;;0.93;;
60869;SDS011;46710;43.680;4.132;2022-07-03T06:23:45;0.75;;;0.75;;
60869;SDS011;46710;43.680;4.132;2022-07-03T06:26:11;0.95;;;0.70;;
60869;SDS011;46710;43.680;4.132;2022-07-03T06:28:37;0.70;;;0.70;;
60869;SDS011;46710;43.680;4.132;2022-07-03T06:31:03;0.73;;;0.73;;
60869;SDS011;46710;43.680;4.132;2022-07-03T06:33:30;0.95;;;0.70;;
60869;SDS011;46710;43.680;4.132;2022-07-03T06:35:56;0.85;;;0.70;;
60869;SDS011;46710;43.680;4.132;2022-07-03T06:38:22;1.87;;;0.70;;
60869;SDS011;46710;43.680;4.132;2022-07-03T06:40:48;0.60;;;0.60;;
60869;SDS011;46710;43.680;4.132;2022-07-03T06:43:14;1.17;;;0.60;;
60869;SDS011;46710;43.680;4.132;2022-07-03T06:45:40;0.80;;;0.80;;
60869;SDS011;46710;43.680;4.132;2022-07-03T06:48:06;1.42;;;1.00;;
60869;SDS011;46710;43.680;4.132;2022-07-03T06:50:32;1.23;;;0.80;;
60869;SDS011;46710;43.680;4.132;2022-07-03T06:52:58;0.98;;;0.80;;
60869;SDS011;46710;43.680;4.132;2022-07-03T06:55:25;0.60;;;0.60;;
60869;SDS011;46710;43.680;4.132;2022-07-03T06:57:51;1.90;;;0.82;;
60869;SDS011;46710;43.680;4.132;2022-07-03T07:00:18;0.93;;;0.77;;
60869;SDS011;46710;43.680;4.132;2022-07-03T07:02:44;0.73;;;0.60;;
60869;SDS011;46710;43.680;4.132;2022-07-03T07:05:10;0.85;;;0.85;;
60869;SDS011;46710;43.680;4.132;2022-07-03T07:07:36;0.62;;;0.62;;
60869;SDS011;46710;43.680;4.132;2022-07-03T07:10:02;0.77;;;0.70;;
60869;SDS011;46710;43.680;4.132;2022-07-03T07:12:28;1.25;;;0.80;;
60869;SDS011;46710;43.680;4.132;2022-07-03T07:14:54;0.77;;;0.77;;
60869;SDS011;46710;43.680;4.132;2022-07-03T07:17:20;0.95;;;0.85;;
60869;SDS011;46710;43.680;4.132;2022-07-03T07:19:46;1.58;;;1.08;;
60869;SDS011;46710;43.680;4.132;2022-07-03T07:22:12;0.93;;;0.75;;
60869;SDS011;46710;43.680;4.132;2022-07-03T07:24:39;1.62;;;1.02;;
60869;SDS011;46710;43.680;4.132;2022-07-03T07:27:05;1.25;;;1.00;;
60869;SDS011;46710;43.680;4.132;2022-07-03T07:29:31;2.17;;;1.20;;
60869;SDS011;46710;43.680;4.132;2022-07-03T07:31:57;2.83;;;1.10;;
60869;SDS011;46710;43.680;4.132;2022-07-03T07:34:23;0.90;;;0.90;;
60869;SDS011;46710;43.680;4.132;2022-07-03T07:36:49;1.77;;;1.02;;
60869;SDS011;46710;43.680;4.132;2022-07-03T07:39:15;1.30;;;1.20;;
60869;SDS011;46710;43.680;4.132;2022-07-03T07:41:41;1.48;;;1.00;;
60869;SDS011;46710;43.680;4.132;2022-07-03T07:44:07;1.70;;;1.00;;
60869;SDS011;46710;43.680;4.132;2022-07-03T07:46:33;0.80;;;0.80;;
60869;SDS011;46710;43.680;4.132;2022-07-03T07:49:00;0.77;;;0.77;;
60869;SDS011;46710;43.680;4.132;2022-07-03T07:51:26;0.98;;;0.90;;
60869;SDS011;46710;43.680;4.132;2022-07-03T07:53:52;1.05;;;0.95;;
60869;SDS011;46710;43.680;4.132;2022-07-03T07:56:22;0.70;;;0.70;;
60869;SDS011;46710;43.680;4.132;2022-07-03T07:58:48;1.10;;;0.82;;
60869;SDS011;46710;43.680;4.132;2022-07-03T08:01:14;1.15;;;0.77;;
60869;SDS011;46710;43.680;4.132;2022-07-03T08:03:59;1.15;;;0.80;;
60869;SDS011;46710;43.680;4.132;2022-07-03T08:06:43;0.77;;;0.57;;
60869;SDS011;46710;43.680;4.132;2022-07-03T08:09:09;1.17;;;0.80;;
60869;SDS011;46710;43.680;4.132;2022-07-03T08:11:35;0.60;;;0.60;;
60869;SDS011;46710;43.680;4.132;2022-07-03T08:14:01;1.25;;;0.82;;
60869;SDS011;46710;43.680;4.132;2022-07-03T08:16:30;2.47;;;0.90;;
60869;SDS011;46710;43.680;4.132;2022-07-03T08:18:56;3.00;;;1.10;;
60869;SDS011;46710;43.680;4.132;2022-07-03T08:21:22;0.93;;;0.90;;
60869;SDS011;46710;43.680;4.132;2022-07-03T08:23:48;1.45;;;0.90;;
60869;SDS011;46710;43.680;4.132;2022-07-03T08:26:14;1.23;;;0.80;;
60869;SDS011;46710;43.680;4.132;2022-07-03T08:28:41;0.98;;;0.85;;
60869;SDS011;46710;43.680;4.132;2022-07-03T08:31:07;1.05;;;0.98;;
60869;SDS011;46710;43.680;4.132;2022-07-03T08:33:33;0.90;;;0.90;;
60869;SDS011;46710;43.680;4.132;2022-07-03T08:35:59;3.67;;;0.93;;
60869;SDS011;46710;43.680;4.132;2022-07-03T08:38:27;1.12;;;0.90;;
60869;SDS011;46710;43.680;4.132;2022-07-03T08:40:55;1.08;;;0.82;;
60869;SDS011;46710;43.680;4.132;2022-07-03T08:43:22;0.95;;;0.85;;
60869;SDS011;46710;43.680;4.132;2022-07-03T08:45:49;1.25;;;0.80;;
60869;SDS011;46710;43.680;4.132;2022-07-03T08:48:15;1.85;;;1.08;;
60869;SDS011;46710;43.680;4.132;2022-07-03T08:50:42;0.82;;;0.80;;
60869;SDS011;46710;43.680;4.132;2022-07-03T08:53:10;2.17;;;0.73;;
60869;SDS011;46710;43.680;4.132;2022-07-03T08:55:36;1.05;;;1.00;;
60869;SDS011;46710;43.680;4.132;2022-07-03T08:58:02;1.73;;;0.90;;
60869;SDS011;46710;43.680;4.132;2022-07-03T09:00:31;1.92;;;1.20;;
60869;SDS011;46710;43.680;4.132;2022-07-03T09:02:57;1.00;;;0.90;;
60869;SDS011;46710;43.680;4.132;2022-07-03T09:05:25;2.17;;;1.40;;
60869;SDS011;46710;43.680;4.132;2022-07-03T09:07:51;1.25;;;0.85;;
60869;SDS011;46710;43.680;4.132;2022-07-03T09:10:17;3.90;;;1.08;;
60869;SDS011;46710;43.680;4.132;2022-07-03T09:12:44;0.85;;;0.85;;
60869;SDS011;46710;43.680;4.132;2022-07-03T09:15:11;1.37;;;1.00;;
60869;SDS011;46710;43.680;4.132;2022-07-03T09:17:37;2.10;;;1.00;;
60869;SDS011;46710;43.680;4.132;2022-07-03T09:20:04;1.12;;;0.93;;
60869;SDS011;46710;43.680;4.132;2022-07-03T09:22:35;1.17;;;1.08;;
60869;SDS011;46710;43.680;4.132;2022-07-03T09:25:07;1.08;;;0.90;;
60869;SDS011;46710;43.680;4.132;2022-07-03T09:27:37;1.02;;;0.95;;
60869;SDS011;46710;43.680;4.132;2022-07-03T09:32:51;2.33;;;1.20;;
60869;SDS011;46710;43.680;4.132;2022-07-03T09:35:17;3.60;;;1.02;;
60869;SDS011;46710;43.680;4.132;2022-07-03T09:40:16;1.10;;;1.00;;
60869;SDS011;46710;43.680;4.132;2022-07-03T09:43:03;1.60;;;1.10;;
60869;SDS011;46710;43.680;4.132;2022-07-03T09:48:25;1.65;;;1.00;;
60869;SDS011;46710;43.680;4.132;2022-07-03T09:51:10;1.92;;;1.02;;
60869;SDS011;46710;43.680;4.132;2022-07-03T09:53:53;1.30;;;0.90;;
60869;SDS011;46710;43.680;4.132;2022-07-03T09:56:20;1.23;;;1.08;;
60869;SDS011;46710;43.680;4.132;2022-07-03T10:01:32;2.30;;;1.48;;
60869;SDS011;46710;43.680;4.132;2022-07-03T10:07:00;1.70;;;1.43;;
60869;SDS011;46710;43.680;4.132;2022-07-03T10:09:30;2.55;;;1.10;;
60869;SDS011;46710;43.680;4.132;2022-07-03T10:11:57;1.42;;;1.30;;
60869;SDS011;46710;43.680;4.132;2022-07-03T10:14:24;1.20;;;1.10;;
60869;SDS011;46710;43.680;4.132;2022-07-03T10:16:50;1.73;;;1.15;;
60869;SDS011;46710;43.680;4.132;2022-07-03T10:19:17;2.80;;;1.40;;
60869;SDS011;46710;43.680;4.132;2022-07-03T10:21:45;1.33;;;1.23;;
60869;SDS011;46710;43.680;4.132;2022-07-03T10:24:13;2.00;;;1.80;;
60869;SDS011;46710;43.680;4.132;2022-07-03T10:26:39;1.00;;;1.00;;
60869;SDS011;46710;43.680;4.132;2022-07-03T10:29:06;1.37;;;1.10;;
60869;SDS011;46710;43.680;4.132;2022-07-03T10:31:35;1.50;;;1.40;;
60869;SDS011;46710;43.680;4.132;2022-07-03T10:34:02;1.77;;;1.20;;
60869;SDS011;46710;43.680;4.132;2022-07-03T10:36:28;2.03;;;1.52;;
60869;SDS011;46710;43.680;4.132;2022-07-03T10:38:55;1.20;;;1.10;;
60869;SDS011;46710;43.680;4.132;2022-07-03T10:41:40;1.30;;;1.20;;
60869;SDS011;46710;43.680;4.132;2022-07-03T10:44:34;2.05;;;1.92;;
60869;SDS011;46710;43.680;4.132;2022-07-03T10:50:00;2.28;;;2.00;;
60869;SDS011;46710;43.680;4.132;2022-07-03T10:52:27;2.60;;;2.10;;
60869;SDS011;46710;43.680;4.132;2022-07-03T10:54:54;2.00;;;1.70;;
60869;SDS011;46710;43.680;4.132;2022-07-03T10:57:22;2.37;;;1.50;;
60869;SDS011;46710;43.680;4.132;2022-07-03T11:02:18;3.37;;;1.40;;
60869;SDS011;46710;43.680;4.132;2022-07-03T11:05:17;1.75;;;1.05;;
60869;SDS011;46710;43.680;4.132;2022-07-03T11:07:43;1.95;;;1.20;;
60869;SDS011;46710;43.680;4.132;2022-07-03T11:15:37;3.25;;;1.50;;
60869;SDS011;46710;43.680;4.132;2022-07-03T11:18:17;2.05;;;1.30;;
60869;SDS011;46710;43.680;4.132;2022-07-03T11:25:42;4.85;;;1.20;;
60869;SDS011;46710;43.680;4.132;2022-07-03T11:41:20;1.90;;;1.42;;
60869;SDS011;46710;43.680;4.132;2022-07-03T11:43:51;2.60;;;1.50;;
60869;SDS011;46710;43.680;4.132;2022-07-03T11:46:21;1.80;;;1.42;;
60869;SDS011;46710;43.680;4.132;2022-07-03T11:48:47;1.58;;;1.10;;
60869;SDS011;46710;43.680;4.132;2022-07-03T11:51:14;0.80;;;0.80;;
60869;SDS011;46710;43.680;4.132;2022-07-03T11:53:40;2.47;;;0.90;;
60869;SDS011;46710;43.680;4.132;2022-07-03T11:59:06;1.50;;;0.95;;
60869;SDS011;46710;43.680;4.132;2022-07-03T12:09:14;2.10;;;1.05;;
60869;SDS011;46710;43.680;4.132;2022-07-03T12:11:40;1.90;;;1.20;;
60869;SDS011;46710;43.680;4.132;2022-07-03T12:14:06;1.05;;;0.90;;
60869;SDS011;46710;43.680;4.132;2022-07-03T12:16:34;1.50;;;1.10;;
60869;SDS011;46710;43.680;4.132;2022-07-03T12:19:04;2.05;;;1.23;;
60869;SDS011;46710;43.680;4.132;2022-07-03T12:21:38;1.20;;;1.10;;
60869;SDS011;46710;43.680;4.132;2022-07-03T12:24:11;1.00;;;0.90;;
60869;SDS011;46710;43.680;4.132;2022-07-03T12:26:38;1.33;;;0.95;;
60869;SDS011;46710;43.680;4.132;2022-07-03T12:29:05;2.35;;;1.10;;
60869;SDS011;46710;43.680;4.132;2022-07-03T12:31:32;1.62;;;1.20;;
60869;SDS011;46710;43.680;4.132;2022-07-03T12:33:59;2.78;;;1.40;;
60869;SDS011;46710;43.680;4.132;2022-07-03T12:36:25;1.60;;;1.00;;
60869;SDS011;46710;43.680;4.132;2022-07-03T12:38:52;1.87;;;1.05;;
60869;SDS011;46710;43.680;4.132;2022-07-03T12:41:19;2.22;;;1.17;;
60869;SDS011;46710;43.680;4.132;2022-07-03T12:43:47;1.83;;;1.10;;
60869;SDS011;46710;43.680;4.132;2022-07-03T12:48:53;1.58;;;1.00;;
60869;SDS011;46710;43.680;4.132;2022-07-03T12:54:04;1.52;;;1.17;;
60869;SDS011;46710;43.680;4.132;2022-07-03T12:56:30;0.98;;;0.98;;
60869;SDS011;46710;43.680;4.132;2022-07-03T12:58:56;1.55;;;1.05;;
60869;SDS011;46710;43.680;4.132;2022-07-03T13:01:42;0.90;;;0.90;;
60869;SDS011;46710;43.680;4.132;2022-07-03T13:04:09;1.50;;;1.02;;
60869;SDS011;46710;43.680;4.132;2022-07-03T13:06:39;2.17;;;1.10;;
60869;SDS011;46710;43.680;4.132;2022-07-03T13:09:06;1.65;;;0.98;;
60869;SDS011;46710;43.680;4.132;2022-07-03T13:11:34;1.67;;;1.02;;
60869;SDS011;46710;43.680;4.132;2022-07-03T13:14:13;1.62;;;1.30;;
60869;SDS011;46710;43.680;4.132;2022-07-03T13:19:06;1.25;;;1.10;;
60869;SDS011;46710;43.680;4.132;2022-07-03T13:21:33;2.12;;;1.17;;
60869;SDS011;46710;43.680;4.132;2022-07-03T13:23:59;2.90;;;1.30;;
60869;SDS011;46710;43.680;4.132;2022-07-03T13:26:25;1.67;;;1.05;;
60869;SDS011;46710;43.680;4.132;2022-07-03T13:28:52;1.17;;;0.90;;
60869;SDS011;46710;43.680;4.132;2022-07-03T13:31:18;1.20;;;0.93;;
60869;SDS011;46710;43.680;4.132;2022-07-03T13:33:44;1.40;;;1.15;;
60869;SDS011;46710;43.680;4.132;2022-07-03T13:36:10;1.85;;;1.30;;
60869;SDS011;46710;43.680;4.132;2022-07-03T13:38:37;1.20;;;1.02;;
60869;SDS011;46710;43.680;4.132;2022-07-03T13:41:03;2.28;;;1.20;;
60869;SDS011;46710;43.680;4.132;2022-07-03T13:43:29;2.20;;;1.25;;
60869;SDS011;46710;43.680;4.132;2022-07-03T13:45:55;1.40;;;1.10;;
60869;SDS011;46710;43.680;4.132;2022-07-03T13:48:22;2.03;;;1.30;;
60869;SDS011;46710;43.680;4.132;2022-07-03T13:50:48;3.10;;;1.23;;
60869;SDS011;46710;43.680;4.132;2022-07-03T13:53:14;1.60;;;1.20;;
60869;SDS011;46710;43.680;4.132;2022-07-03T13:55:40;1.80;;;1.02;;
60869;SDS011;46710;43.680;4.132;2022-07-03T13:58:06;1.60;;;1.10;;
60869;SDS011;46710;43.680;4.132;2022-07-03T14:00:33;1.52;;;0.95;;
60869;SDS011;46710;43.680;4.132;2022-07-03T14:02:59;2.10;;;1.10;;
60869;SDS011;46710;43.680;4.132;2022-07-03T14:05:26;2.12;;;1.20;;
60869;SDS011;46710;43.680;4.132;2022-07-03T14:07:53;1.62;;;1.20;;
60869;SDS011;46710;43.680;4.132;2022-07-03T14:10:19;3.87;;;1.85;;
60869;SDS011;46710;43.680;4.132;2022-07-03T14:12:47;3.00;;;1.50;;
60869;SDS011;46710;43.680;4.132;2022-07-03T14:15:13;2.22;;;1.80;;
60869;SDS011;46710;43.680;4.132;2022-07-03T14:17:40;2.37;;;1.35;;
60869;SDS011;46710;43.680;4.132;2022-07-03T14:20:08;2.15;;;1.73;;
60869;SDS011;46710;43.680;4.132;2022-07-03T14:22:34;1.77;;;1.58;;
60869;SDS011;46710;43.680;4.132;2022-07-03T14:25:00;1.52;;;1.23;;
60869;SDS011;46710;43.680;4.132;2022-07-03T14:27:26;1.52;;;1.40;;
60869;SDS011;46710;43.680;4.132;2022-07-03T14:30:12;1.15;;;1.05;;
60869;SDS011;46710;43.680;4.132;2022-07-03T14:32:57;1.17;;;1.08;;
60869;SDS011;46710;43.680;4.132;2022-07-03T14:35:23;0.98;;;0.93;;
60869;SDS011;46710;43.680;4.132;2022-07-03T14:37:49;3.37;;;1.30;;
60869;SDS011;46710;43.680;4.132;2022-07-03T14:40:15;1.35;;;1.08;;
60869;SDS011;46710;43.680;4.132;2022-07-03T14:42:41;1.55;;;1.25;;
60869;SDS011;46710;43.680;4.132;2022-07-03T14:45:08;1.50;;;1.10;;
60869;SDS011;46710;43.680;4.132;2022-07-03T14:47:34;2.40;;;1.10;;
60869;SDS011;46710;43.680;4.132;2022-07-03T14:50:00;2.17;;;1.20;;
60869;SDS011;46710;43.680;4.132;2022-07-03T14:52:26;2.20;;;1.48;;
60869;SDS011;46710;43.680;4.132;2022-07-03T14:54:54;1.40;;;1.10;;
60869;SDS011;46710;43.680;4.132;2022-07-03T15:02:20;1.08;;;0.98;;
60869;SDS011;46710;43.680;4.132;2022-07-03T15:10:31;1.98;;;0.98;;
60869;SDS011;46710;43.680;4.132;2022-07-03T15:12:58;0.93;;;0.90;;
60869;SDS011;46710;43.680;4.132;2022-07-03T15:15:26;1.60;;;1.17;;
60869;SDS011;46710;43.680;4.132;2022-07-03T15:17:53;1.40;;;1.10;;
60869;SDS011;46710;43.680;4.132;2022-07-03T15:20:19;1.17;;;1.08;;
60869;SDS011;46710;43.680;4.132;2022-07-03T15:22:47;1.52;;;1.23;;
60869;SDS011;46710;43.680;4.132;2022-07-03T15:25:15;1.52;;;1.37;;
60869;SDS011;46710;43.680;4.132;2022-07-03T15:27:42;1.30;;;1.20;;
60869;SDS011;46710;43.680;4.132;2022-07-03T15:30:11;2.10;;;1.90;;
60869;SDS011;46710;43.680;4.132;2022-07-03T15:32:38;1.20;;;1.10;;
60869;SDS011;46710;43.680;4.132;2022-07-03T15:35:04;2.22;;;1.20;;
60869;SDS011;46710;43.680;4.132;2022-07-03T15:37:35;1.70;;;1.20;;
60869;SDS011;46710;43.680;4.132;2022-07-03T15:40:09;2.15;;;1.12;;
60869;SDS011;46710;43.680;4.132;2022-07-03T15:42:41;3.45;;;1.45;;
60869;SDS011;46710;43.680;4.132;2022-07-03T15:45:20;2.80;;;1.50;;
60869;SDS011;46710;43.680;4.132;2022-07-03T15:47:52;1.40;;;1.20;;
60869;SDS011;46710;43.680;4.132;2022-07-03T15:50:31;1.12;;;1.10;;
60869;SDS011;46710;43.680;4.132;2022-07-03T15:53:00;1.45;;;0.93;;
60869;SDS011;46710;43.680;4.132;2022-07-03T15:55:28;1.52;;;1.17;;
60869;SDS011;46710;43.680;4.132;2022-07-03T15:58:01;4.00;;;1.20;;
60869;SDS011;46710;43.680;4.132;2022-07-03T16:00:29;1.60;;;1.10;;
60869;SDS011;46710;43.680;4.132;2022-07-03T16:03:22;2.12;;;1.30;;
60869;SDS011;46710;43.680;4.132;2022-07-03T16:05:51;1.48;;;1.10;;
60869;SDS011;46710;43.680;4.132;2022-07-03T16:08:17;2.05;;;1.12;;
60869;SDS011;46710;43.680;4.132;2022-07-03T16:10:44;1.42;;;1.20;;
60869;SDS011;46710;43.680;4.132;2022-07-03T16:13:10;1.10;;;1.00;;
60869;SDS011;46710;43.680;4.132;2022-07-03T16:15:37;2.00;;;1.00;;
60869;SDS011;46710;43.680;4.132;2022-07-03T16:18:04;2.90;;;1.20;;
60869;SDS011;46710;43.680;4.132;2022-07-03T16:20:31;1.83;;;0.90;;
60869;SDS011;46710;43.680;4.132;2022-07-03T16:23:01;0.88;;;0.88;;
60869;SDS011;46710;43.680;4.132;2022-07-03T16:25:29;1.40;;;1.30;;
60869;SDS011;46710;43.680;4.132;2022-07-03T16:27:56;1.23;;;1.00;;
60869;SDS011;46710;43.680;4.132;2022-07-03T16:30:22;3.08;;;0.98;;
60869;SDS011;46710;43.680;4.132;2022-07-03T16:32:48;1.12;;;0.80;;
60869;SDS011;46710;43.680;4.132;2022-07-03T16:35:16;1.17;;;1.00;;